sensor_id;sensor_type;location;lat;lon;timestamp;temperature;humidity
66144;SHT31;52947;50.842;6.084;2023-04-30T00:01:47;6.74;93.83
66144;SHT31;52947;50.842;6.084;2023-04-30T00:04:15;6.67;93.88
66144;SHT31;52947;50.842;6.084;2023-04-30T00:06:44;6.56;93.92
66144;SHT31;52947;50.842;6.084;2023-04-30T00:09:12;6.54;94.54
66144;SHT31;52947;50.842;6.084;2023-04-30T00:11:40;6.47;94.14
66144;SHT31;52947;50.842;6.084;2023-04-30T00:14:08;6.39;93.90
66144;SHT31;52947;50.842;6.084;2023-04-30T00:16:36;6.34;94.30
66144;SHT31;52947;50.842;6.084;2023-04-30T00:19:03;6.29;94.40
66144;SHT31;52947;50.842;6.084;2023-04-30T00:21:32;6.36;94.84
66144;SHT31;52947;50.842;6.084;2023-04-30T00:24:01;6.36;94.90
66144;SHT31;52947;50.842;6.084;2023-04-30T00:26:29;6.37;95.04
66144;SHT31;52947;50.842;6.084;2023-04-30T00:28:57;6.40;94.92
66144;SHT31;52947;50.842;6.084;2023-04-30T00:31:24;6.26;94.59
66144;SHT31;52947;50.842;6.084;2023-04-30T00:33:52;6.19;94.69
66144;SHT31;52947;50.842;6.084;2023-04-30T00:36:20;6.06;94.55
66144;SHT31;52947;50.842;6.084;2023-04-30T00:38:48;5.97;94.44
66144;SHT31;52947;50.842;6.084;2023-04-30T00:41:18;5.88;94.56
66144;SHT31;52947;50.842;6.084;2023-04-30T00:43:47;5.81;94.55
66144;SHT31;52947;50.842;6.084;2023-04-30T00:46:15;5.72;94.54
66144;SHT31;52947;50.842;6.084;2023-04-30T00:48:43;5.70;94.61
66144;SHT31;52947;50.842;6.084;2023-04-30T00:51:11;5.70;95.07
66144;SHT31;52947;50.842;6.084;2023-04-30T00:53:39;5.74;95.39
66144;SHT31;52947;50.842;6.084;2023-04-30T00:56:09;5.71;95.21
66144;SHT31;52947;50.842;6.084;2023-04-30T00:58:39;5.64;95.25
66144;SHT31;52947;50.842;6.084;2023-04-30T01:01:07;5.60;95.14
66144;SHT31;52947;50.842;6.084;2023-04-30T01:03:35;5.57;95.15
66144;SHT31;52947;50.842;6.084;2023-04-30T01:06:03;5.50;95.21
66144;SHT31;52947;50.842;6.084;2023-04-30T01:08:32;5.47;95.23
66144;SHT31;52947;50.842;6.084;2023-04-30T01:11:09;5.48;95.45
66144;SHT31;52947;50.842;6.084;2023-04-30T01:13:50;5.44;95.58
66144;SHT31;52947;50.842;6.084;2023-04-30T01:16:22;5.41;95.56
66144;SHT31;52947;50.842;6.084;2023-04-30T01:18:56;5.40;95.55
66144;SHT31;52947;50.842;6.084;2023-04-30T01:21:26;5.41;95.89
66144;SHT31;52947;50.842;6.084;2023-04-30T01:24:11;5.40;95.92
66144;SHT31;52947;50.842;6.084;2023-04-30T01:26:52;5.50;96.23
66144;SHT31;52947;50.842;6.084;2023-04-30T01:29:27;5.46;96.04
66144;SHT31;52947;50.842;6.084;2023-04-30T01:31:55;5.46;96.14
66144;SHT31;52947;50.842;6.084;2023-04-30T01:34:23;5.44;96.24
66144;SHT31;52947;50.842;6.084;2023-04-30T01:37:03;5.43;96.35
66144;SHT31;52947;50.842;6.084;2023-04-30T01:39:47;5.87;98.01
66144;SHT31;52947;50.842;6.084;2023-04-30T01:42:20;5.99;97.71
66144;SHT31;52947;50.842;6.084;2023-04-30T01:44:57;6.03;96.90
66144;SHT31;52947;50.842;6.084;2023-04-30T01:47:37;5.84;96.20
66144;SHT31;52947;50.842;6.084;2023-04-30T01:50:19;5.82;96.23
66144;SHT31;52947;50.842;6.084;2023-04-30T01:52:51;5.75;96.20
66144;SHT31;52947;50.842;6.084;2023-04-30T01:55:23;5.65;95.98
66144;SHT31;52947;50.842;6.084;2023-04-30T01:57:56;5.62;96.23
66144;SHT31;52947;50.842;6.084;2023-04-30T02:00:28;5.60;96.12
66144;SHT31;52947;50.842;6.084;2023-04-30T02:02:57;5.58;96.18
66144;SHT31;52947;50.842;6.084;2023-04-30T02:05:26;5.54;96.01
66144;SHT31;52947;50.842;6.084;2023-04-30T02:07:54;5.50;96.07
66144;SHT31;52947;50.842;6.084;2023-04-30T02:10:24;5.46;95.97
66144;SHT31;52947;50.842;6.084;2023-04-30T02:12:52;5.48;96.38
66144;SHT31;52947;50.842;6.084;2023-04-30T02:15:20;5.57;96.49
66144;SHT31;52947;50.842;6.084;2023-04-30T02:17:50;5.55;96.44
66144;SHT31;52947;50.842;6.084;2023-04-30T02:20:18;5.57;96.40
66144;SHT31;52947;50.842;6.084;2023-04-30T02:22:46;5.57;96.40
66144;SHT31;52947;50.842;6.084;2023-04-30T02:25:14;5.58;96.47
66144;SHT31;52947;50.842;6.084;2023-04-30T02:27:42;5.48;96.08
66144;SHT31;52947;50.842;6.084;2023-04-30T02:30:10;5.37;95.78
66144;SHT31;52947;50.842;6.084;2023-04-30T02:32:38;5.24;95.64
66144;SHT31;52947;50.842;6.084;2023-04-30T02:35:08;5.15;95.72
66144;SHT31;52947;50.842;6.084;2023-04-30T02:37:36;5.13;95.91
66144;SHT31;52947;50.842;6.084;2023-04-30T02:40:05;5.13;96.07
66144;SHT31;52947;50.842;6.084;2023-04-30T02:42:33;5.10;96.00
66144;SHT31;52947;50.842;6.084;2023-04-30T02:45:02;5.17;96.37
66144;SHT31;52947;50.842;6.084;2023-04-30T02:47:30;5.34;96.74
66144;SHT31;52947;50.842;6.084;2023-04-30T02:49:58;5.44;96.76
66144;SHT31;52947;50.842;6.084;2023-04-30T02:52:28;5.34;96.17
66144;SHT31;52947;50.842;6.084;2023-04-30T02:54:56;5.27;96.10
66144;SHT31;52947;50.842;6.084;2023-04-30T02:57:26;5.20;95.99
66144;SHT31;52947;50.842;6.084;2023-04-30T02:59:54;5.12;95.88
66144;SHT31;52947;50.842;6.084;2023-04-30T03:02:23;5.01;95.71
66144;SHT31;52947;50.842;6.084;2023-04-30T03:04:51;4.95;95.85
66144;SHT31;52947;50.842;6.084;2023-04-30T03:07:18;4.92;96.12
66144;SHT31;52947;50.842;6.084;2023-04-30T03:09:48;5.06;96.59
66144;SHT31;52947;50.842;6.084;2023-04-30T03:12:16;6.19;98.87
66144;SHT31;52947;50.842;6.084;2023-04-30T03:14:44;6.84;99.15
66144;SHT31;52947;50.842;6.084;2023-04-30T03:17:12;7.35;99.22
66144;SHT31;52947;50.842;6.084;2023-04-30T03:19:40;7.51;98.87
66144;SHT31;52947;50.842;6.084;2023-04-30T03:22:09;7.80;98.26
66144;SHT31;52947;50.842;6.084;2023-04-30T03:24:37;8.25;97.15
66144;SHT31;52947;50.842;6.084;2023-04-30T03:27:06;8.59;95.83
66144;SHT31;52947;50.842;6.084;2023-04-30T03:29:34;8.85;92.70
66144;SHT31;52947;50.842;6.084;2023-04-30T03:32:02;8.76;94.11
66144;SHT31;52947;50.842;6.084;2023-04-30T03:34:30;8.58;92.10
66144;SHT31;52947;50.842;6.084;2023-04-30T03:36:59;8.44;93.29
66144;SHT31;52947;50.842;6.084;2023-04-30T03:39:29;8.64;91.52
66144;SHT31;52947;50.842;6.084;2023-04-30T03:41:57;8.86;91.59
66144;SHT31;52947;50.842;6.084;2023-04-30T03:44:26;8.82;90.74
66144;SHT31;52947;50.842;6.084;2023-04-30T03:46:54;8.62;89.49
66144;SHT31;52947;50.842;6.084;2023-04-30T03:49:22;8.56;91.51
66144;SHT31;52947;50.842;6.084;2023-04-30T03:51:50;8.78;90.63
66144;SHT31;52947;50.842;6.084;2023-04-30T03:54:17;8.72;89.86
66144;SHT31;52947;50.842;6.084;2023-04-30T03:56:45;8.80;88.99
66144;SHT31;52947;50.842;6.084;2023-04-30T03:59:13;8.66;88.18
66144;SHT31;52947;50.842;6.084;2023-04-30T04:01:43;8.85;89.56
66144;SHT31;52947;50.842;6.084;2023-04-30T04:04:10;8.75;87.08
66144;SHT31;52947;50.842;6.084;2023-04-30T04:06:38;8.33;89.12
66144;SHT31;52947;50.842;6.084;2023-04-30T04:09:06;8.38;89.55
66144;SHT31;52947;50.842;6.084;2023-04-30T04:11:34;8.38;88.70
66144;SHT31;52947;50.842;6.084;2023-04-30T04:14:02;8.35;89.24
66144;SHT31;52947;50.842;6.084;2023-04-30T04:16:30;8.33;88.58
66144;SHT31;52947;50.842;6.084;2023-04-30T04:18:59;8.14;88.94
66144;SHT31;52947;50.842;6.084;2023-04-30T04:21:28;7.87;87.50
66144;SHT31;52947;50.842;6.084;2023-04-30T04:23:56;7.32;88.57
66144;SHT31;52947;50.842;6.084;2023-04-30T04:26:25;7.35;90.84
66144;SHT31;52947;50.842;6.084;2023-04-30T04:28:54;7.61;91.14
66144;SHT31;52947;50.842;6.084;2023-04-30T04:31:22;7.80;90.54
66144;SHT31;52947;50.842;6.084;2023-04-30T04:33:50;7.84;90.15
66144;SHT31;52947;50.842;6.084;2023-04-30T04:36:25;8.10;89.49
66144;SHT31;52947;50.842;6.084;2023-04-30T04:38:54;7.97;89.22
66144;SHT31;52947;50.842;6.084;2023-04-30T04:41:23;8.08;89.86
66144;SHT31;52947;50.842;6.084;2023-04-30T04:43:52;8.25;89.32
66144;SHT31;52947;50.842;6.084;2023-04-30T04:46:20;8.17;89.00
66144;SHT31;52947;50.842;6.084;2023-04-30T04:48:50;8.03;88.99
66144;SHT31;52947;50.842;6.084;2023-04-30T04:51:18;7.86;88.34
66144;SHT31;52947;50.842;6.084;2023-04-30T04:53:48;7.86;89.36
66144;SHT31;52947;50.842;6.084;2023-04-30T04:56:17;8.00;89.01
66144;SHT31;52947;50.842;6.084;2023-04-30T04:58:46;8.27;88.98
66144;SHT31;52947;50.842;6.084;2023-04-30T05:01:14;8.35;88.37
66144;SHT31;52947;50.842;6.084;2023-04-30T05:03:44;8.24;88.57
66144;SHT31;52947;50.842;6.084;2023-04-30T05:06:13;8.38;88.24
66144;SHT31;52947;50.842;6.084;2023-04-30T05:08:41;8.42;86.51
66144;SHT31;52947;50.842;6.084;2023-04-30T05:11:10;8.61;86.87
66144;SHT31;52947;50.842;6.084;2023-04-30T05:13:41;8.42;87.24
66144;SHT31;52947;50.842;6.084;2023-04-30T05:16:09;8.64;87.64
66144;SHT31;52947;50.842;6.084;2023-04-30T05:18:37;8.79;87.03
66144;SHT31;52947;50.842;6.084;2023-04-30T05:21:05;8.89;86.21
66144;SHT31;52947;50.842;6.084;2023-04-30T05:23:33;9.06;85.85
66144;SHT31;52947;50.842;6.084;2023-04-30T05:26:00;9.55;84.81
66144;SHT31;52947;50.842;6.084;2023-04-30T05:28:30;10.03;85.45
66144;SHT31;52947;50.842;6.084;2023-04-30T05:30:59;10.73;82.88
66144;SHT31;52947;50.842;6.084;2023-04-30T05:33:27;11.24;82.24
66144;SHT31;52947;50.842;6.084;2023-04-30T05:35:55;11.87;82.04
66144;SHT31;52947;50.842;6.084;2023-04-30T05:38:22;12.77;77.92
66144;SHT31;52947;50.842;6.084;2023-04-30T05:40:50;13.39;76.60
66144;SHT31;52947;50.842;6.084;2023-04-30T05:43:18;14.08;73.99
66144;SHT31;52947;50.842;6.084;2023-04-30T05:45:47;14.68;72.85
66144;SHT31;52947;50.842;6.084;2023-04-30T05:48:15;15.03;71.29
66144;SHT31;52947;50.842;6.084;2023-04-30T05:50:43;15.26;70.24
66144;SHT31;52947;50.842;6.084;2023-04-30T05:53:12;15.85;67.50
66144;SHT31;52947;50.842;6.084;2023-04-30T05:55:40;16.34;65.24
66144;SHT31;52947;50.842;6.084;2023-04-30T05:58:07;17.01;63.36
66144;SHT31;52947;50.842;6.084;2023-04-30T06:00:35;17.07;63.23
66144;SHT31;52947;50.842;6.084;2023-04-30T06:03:06;17.52;62.17
66144;SHT31;52947;50.842;6.084;2023-04-30T06:05:34;18.03;61.05
66144;SHT31;52947;50.842;6.084;2023-04-30T06:08:02;18.41;59.65
66144;SHT31;52947;50.842;6.084;2023-04-30T06:10:30;19.03;58.67
66144;SHT31;52947;50.842;6.084;2023-04-30T06:12:58;19.64;57.52
66144;SHT31;52947;50.842;6.084;2023-04-30T06:15:26;19.39;56.18
66144;SHT31;52947;50.842;6.084;2023-04-30T06:17:54;20.17;55.76
66144;SHT31;52947;50.842;6.084;2023-04-30T06:20:23;20.76;54.56
66144;SHT31;52947;50.842;6.084;2023-04-30T06:22:52;21.03;53.05
66144;SHT31;52947;50.842;6.084;2023-04-30T06:25:20;21.40;52.95
66144;SHT31;52947;50.842;6.084;2023-04-30T06:27:48;21.33;52.99
66144;SHT31;52947;50.842;6.084;2023-04-30T06:30:17;21.54;51.04
66144;SHT31;52947;50.842;6.084;2023-04-30T06:32:45;22.22;51.11
66144;SHT31;52947;50.842;6.084;2023-04-30T06:35:13;22.84;49.84
66144;SHT31;52947;50.842;6.084;2023-04-30T06:37:42;22.63;49.95
66144;SHT31;52947;50.842;6.084;2023-04-30T06:40:11;23.11;49.31
66144;SHT31;52947;50.842;6.084;2023-04-30T06:42:39;23.42;48.89
66144;SHT31;52947;50.842;6.084;2023-04-30T06:45:08;23.70;48.36
66144;SHT31;52947;50.842;6.084;2023-04-30T06:47:36;23.35;48.61
66144;SHT31;52947;50.842;6.084;2023-04-30T06:50:05;23.69;47.56
66144;SHT31;52947;50.842;6.084;2023-04-30T06:52:32;23.46;47.00
66144;SHT31;52947;50.842;6.084;2023-04-30T06:55:02;23.39;47.98
66144;SHT31;52947;50.842;6.084;2023-04-30T06:57:30;23.82;47.29
66144;SHT31;52947;50.842;6.084;2023-04-30T06:59:58;24.85;46.45
66144;SHT31;52947;50.842;6.084;2023-04-30T07:02:26;25.04;45.85
66144;SHT31;52947;50.842;6.084;2023-04-30T07:04:54;25.80;45.09
66144;SHT31;52947;50.842;6.084;2023-04-30T07:07:22;25.73;44.04
66144;SHT31;52947;50.842;6.084;2023-04-30T07:09:50;26.61;43.11
66144;SHT31;52947;50.842;6.084;2023-04-30T07:12:20;26.75;42.55
66144;SHT31;52947;50.842;6.084;2023-04-30T07:14:48;25.91;43.59
66144;SHT31;52947;50.842;6.084;2023-04-30T07:17:16;23.54;46.98
66144;SHT31;52947;50.842;6.084;2023-04-30T07:19:44;24.91;45.72
66144;SHT31;52947;50.842;6.084;2023-04-30T07:22:12;24.60;45.56
66144;SHT31;52947;50.842;6.084;2023-04-30T07:24:40;25.67;43.52
66144;SHT31;52947;50.842;6.084;2023-04-30T07:27:08;26.53;43.21
66144;SHT31;52947;50.842;6.084;2023-04-30T07:29:37;25.16;44.53
66144;SHT31;52947;50.842;6.084;2023-04-30T07:32:05;26.71;43.23
66144;SHT31;52947;50.842;6.084;2023-04-30T07:34:33;26.21;42.69
66144;SHT31;52947;50.842;6.084;2023-04-30T07:37:01;27.24;42.19
66144;SHT31;52947;50.842;6.084;2023-04-30T07:39:29;25.36;45.10
66144;SHT31;52947;50.842;6.084;2023-04-30T07:41:57;25.01;44.03
66144;SHT31;52947;50.842;6.084;2023-04-30T07:44:25;25.38;45.16
66144;SHT31;52947;50.842;6.084;2023-04-30T07:46:54;26.62;43.07
66144;SHT31;52947;50.842;6.084;2023-04-30T07:49:22;25.84;44.51
66144;SHT31;52947;50.842;6.084;2023-04-30T07:51:50;25.45;44.94
66144;SHT31;52947;50.842;6.084;2023-04-30T07:54:18;25.79;45.26
66144;SHT31;52947;50.842;6.084;2023-04-30T07:56:46;26.05;43.52
66144;SHT31;52947;50.842;6.084;2023-04-30T07:59:15;24.09;47.83
66144;SHT31;52947;50.842;6.084;2023-04-30T08:01:43;24.43;47.16
66144;SHT31;52947;50.842;6.084;2023-04-30T08:04:12;24.47;46.50
66144;SHT31;52947;50.842;6.084;2023-04-30T08:06:40;25.04;45.45
66144;SHT31;52947;50.842;6.084;2023-04-30T08:09:08;24.10;47.18
66144;SHT31;52947;50.842;6.084;2023-04-30T08:11:36;25.15;45.28
66144;SHT31;52947;50.842;6.084;2023-04-30T08:14:04;25.58;44.28
66144;SHT31;52947;50.842;6.084;2023-04-30T08:16:32;25.70;43.64
66144;SHT31;52947;50.842;6.084;2023-04-30T08:19:00;26.73;42.73
66144;SHT31;52947;50.842;6.084;2023-04-30T08:21:30;26.72;43.59
66144;SHT31;52947;50.842;6.084;2023-04-30T08:23:59;26.67;43.20
66144;SHT31;52947;50.842;6.084;2023-04-30T08:26:26;26.55;43.11
66144;SHT31;52947;50.842;6.084;2023-04-30T08:28:54;26.42;43.06
66144;SHT31;52947;50.842;6.084;2023-04-30T08:31:22;27.14;41.74
66144;SHT31;52947;50.842;6.084;2023-04-30T08:33:50;25.74;43.92
66144;SHT31;52947;50.842;6.084;2023-04-30T08:36:18;25.96;42.98
66144;SHT31;52947;50.842;6.084;2023-04-30T08:38:47;24.75;45.01
66144;SHT31;52947;50.842;6.084;2023-04-30T08:41:15;25.59;43.25
66144;SHT31;52947;50.842;6.084;2023-04-30T08:43:43;23.61;45.70
66144;SHT31;52947;50.842;6.084;2023-04-30T08:46:11;20.56;52.47
66144;SHT31;52947;50.842;6.084;2023-04-30T08:48:40;20.59;51.99
66144;SHT31;52947;50.842;6.084;2023-04-30T08:51:08;21.69;51.13
66144;SHT31;52947;50.842;6.084;2023-04-30T08:53:36;21.61;49.91
66144;SHT31;52947;50.842;6.084;2023-04-30T08:56:06;21.24;51.59
66144;SHT31;52947;50.842;6.084;2023-04-30T08:58:36;22.43;49.29
66144;SHT31;52947;50.842;6.084;2023-04-30T09:01:06;22.57;48.79
66144;SHT31;52947;50.842;6.084;2023-04-30T09:03:35;22.53;48.36
66144;SHT31;52947;50.842;6.084;2023-04-30T09:06:03;22.64;48.44
66144;SHT31;52947;50.842;6.084;2023-04-30T09:08:41;20.29;52.18
66144;SHT31;52947;50.842;6.084;2023-04-30T09:11:21;21.69;50.83
66144;SHT31;52947;50.842;6.084;2023-04-30T09:13:50;20.36;52.25
66144;SHT31;52947;50.842;6.084;2023-04-30T09:16:19;19.26;53.61
66144;SHT31;52947;50.842;6.084;2023-04-30T09:18:48;21.23;52.39
66144;SHT31;52947;50.842;6.084;2023-04-30T09:21:19;22.16;49.07
66144;SHT31;52947;50.842;6.084;2023-04-30T09:23:57;20.79;49.53
66144;SHT31;52947;50.842;6.084;2023-04-30T09:26:31;21.30;49.88
66144;SHT31;52947;50.842;6.084;2023-04-30T09:28:59;21.77;48.78
66144;SHT31;52947;50.842;6.084;2023-04-30T09:31:33;21.78;47.86
66144;SHT31;52947;50.842;6.084;2023-04-30T09:34:02;21.62;48.19
66144;SHT31;52947;50.842;6.084;2023-04-30T09:36:29;20.59;50.84
66144;SHT31;52947;50.842;6.084;2023-04-30T09:39:05;19.08;52.68
66144;SHT31;52947;50.842;6.084;2023-04-30T09:41:38;19.84;52.40
66144;SHT31;52947;50.842;6.084;2023-04-30T09:44:06;20.71;50.29
66144;SHT31;52947;50.842;6.084;2023-04-30T09:46:34;21.44;49.50
66144;SHT31;52947;50.842;6.084;2023-04-30T09:49:04;21.68;47.43
66144;SHT31;52947;50.842;6.084;2023-04-30T09:51:32;19.97;52.04
66144;SHT31;52947;50.842;6.084;2023-04-30T09:54:01;21.22;49.32
66144;SHT31;52947;50.842;6.084;2023-04-30T09:56:32;21.62;48.94
66144;SHT31;52947;50.842;6.084;2023-04-30T09:59:04;20.86;49.68
66144;SHT31;52947;50.842;6.084;2023-04-30T10:01:34;20.48;50.73
66144;SHT31;52947;50.842;6.084;2023-04-30T10:04:06;21.11;49.32
66144;SHT31;52947;50.842;6.084;2023-04-30T10:06:34;21.11;49.03
66144;SHT31;52947;50.842;6.084;2023-04-30T10:09:04;21.54;47.60
66144;SHT31;52947;50.842;6.084;2023-04-30T10:11:34;22.23;47.43
66144;SHT31;52947;50.842;6.084;2023-04-30T10:14:09;20.51;48.58
66144;SHT31;52947;50.842;6.084;2023-04-30T10:16:43;20.48;48.77
66144;SHT31;52947;50.842;6.084;2023-04-30T10:19:20;21.59;46.20
66144;SHT31;52947;50.842;6.084;2023-04-30T10:21:49;21.34;48.10
66144;SHT31;52947;50.842;6.084;2023-04-30T10:24:19;21.73;47.03
66144;SHT31;52947;50.842;6.084;2023-04-30T10:26:48;22.40;46.19
66144;SHT31;52947;50.842;6.084;2023-04-30T10:29:17;19.91;50.21
66144;SHT31;52947;50.842;6.084;2023-04-30T10:31:47;20.14;49.10
66144;SHT31;52947;50.842;6.084;2023-04-30T10:34:21;20.38;47.39
66144;SHT31;52947;50.842;6.084;2023-04-30T10:36:55;20.36;47.74
66144;SHT31;52947;50.842;6.084;2023-04-30T10:39:25;21.99;44.96
66144;SHT31;52947;50.842;6.084;2023-04-30T10:42:01;21.48;44.22
66144;SHT31;52947;50.842;6.084;2023-04-30T10:44:32;21.28;44.63
66144;SHT31;52947;50.842;6.084;2023-04-30T10:47:01;20.87;44.21
66144;SHT31;52947;50.842;6.084;2023-04-30T10:49:29;21.04;43.30
66144;SHT31;52947;50.842;6.084;2023-04-30T10:51:59;21.79;43.37
66144;SHT31;52947;50.842;6.084;2023-04-30T10:54:28;22.42;42.50
66144;SHT31;52947;50.842;6.084;2023-04-30T10:57:09;21.59;42.99
66144;SHT31;52947;50.842;6.084;2023-04-30T10:59:41;21.58;44.56
66144;SHT31;52947;50.842;6.084;2023-04-30T11:02:11;21.34;42.43
66144;SHT31;52947;50.842;6.084;2023-04-30T11:05:10;21.10;43.93
66144;SHT31;52947;50.842;6.084;2023-04-30T11:07:48;20.97;44.89
66144;SHT31;52947;50.842;6.084;2023-04-30T11:10:20;21.51;44.04
66144;SHT31;52947;50.842;6.084;2023-04-30T11:12:49;21.14;43.36
66144;SHT31;52947;50.842;6.084;2023-04-30T11:15:20;19.69;45.40
66144;SHT31;52947;50.842;6.084;2023-04-30T11:17:48;20.63;44.28
66144;SHT31;52947;50.842;6.084;2023-04-30T11:20:19;21.55;43.62
66144;SHT31;52947;50.842;6.084;2023-04-30T11:22:48;22.61;41.27
66144;SHT31;52947;50.842;6.084;2023-04-30T11:25:39;21.19;43.85
66144;SHT31;52947;50.842;6.084;2023-04-30T11:28:07;20.72;44.09
66144;SHT31;52947;50.842;6.084;2023-04-30T11:30:37;19.50;43.61
66144;SHT31;52947;50.842;6.084;2023-04-30T11:33:05;19.88;44.70
66144;SHT31;52947;50.842;6.084;2023-04-30T11:35:34;18.81;46.90
66144;SHT31;52947;50.842;6.084;2023-04-30T11:38:02;18.85;47.43
66144;SHT31;52947;50.842;6.084;2023-04-30T11:40:34;20.87;44.90
66144;SHT31;52947;50.842;6.084;2023-04-30T11:43:02;20.71;44.27
66144;SHT31;52947;50.842;6.084;2023-04-30T11:45:30;22.05;42.21
66144;SHT31;52947;50.842;6.084;2023-04-30T11:47:59;22.73;42.47
66144;SHT31;52947;50.842;6.084;2023-04-30T11:50:32;22.15;43.76
66144;SHT31;52947;50.842;6.084;2023-04-30T11:53:00;22.01;43.37
66144;SHT31;52947;50.842;6.084;2023-04-30T11:55:29;22.42;44.45
66144;SHT31;52947;50.842;6.084;2023-04-30T11:57:57;20.94;47.34
66144;SHT31;52947;50.842;6.084;2023-04-30T12:00:27;19.50;49.51
66144;SHT31;52947;50.842;6.084;2023-04-30T12:02:55;21.45;45.95
66144;SHT31;52947;50.842;6.084;2023-04-30T12:05:25;22.26;44.75
66144;SHT31;52947;50.842;6.084;2023-04-30T12:07:54;20.62;46.99
66144;SHT31;52947;50.842;6.084;2023-04-30T12:10:23;19.74;48.72
66144;SHT31;52947;50.842;6.084;2023-04-30T12:12:51;20.44;47.45
66144;SHT31;52947;50.842;6.084;2023-04-30T12:15:21;20.32;47.80
66144;SHT31;52947;50.842;6.084;2023-04-30T12:17:53;19.39;49.97
66144;SHT31;52947;50.842;6.084;2023-04-30T12:20:24;19.63;49.71
66144;SHT31;52947;50.842;6.084;2023-04-30T12:22:54;20.10;49.21
66144;SHT31;52947;50.842;6.084;2023-04-30T12:25:23;20.25;47.82
66144;SHT31;52947;50.842;6.084;2023-04-30T12:27:51;20.53;46.62
66144;SHT31;52947;50.842;6.084;2023-04-30T12:30:20;19.22;50.67
66144;SHT31;52947;50.842;6.084;2023-04-30T12:32:49;20.04;49.32
66144;SHT31;52947;50.842;6.084;2023-04-30T12:35:19;20.35;48.02
66144;SHT31;52947;50.842;6.084;2023-04-30T12:37:48;19.97;48.46
66144;SHT31;52947;50.842;6.084;2023-04-30T12:40:20;20.25;48.17
66144;SHT31;52947;50.842;6.084;2023-04-30T12:42:59;19.16;50.03
66144;SHT31;52947;50.842;6.084;2023-04-30T12:45:43;18.62;50.56
66144;SHT31;52947;50.842;6.084;2023-04-30T12:48:14;19.16;49.56
66144;SHT31;52947;50.842;6.084;2023-04-30T12:50:47;20.35;49.37
66144;SHT31;52947;50.842;6.084;2023-04-30T12:53:15;20.41;46.95
66144;SHT31;52947;50.842;6.084;2023-04-30T12:56:07;21.00;45.88
66144;SHT31;52947;50.842;6.084;2023-04-30T12:58:36;21.38;45.91
66144;SHT31;52947;50.842;6.084;2023-04-30T13:01:04;20.75;47.91
66144;SHT31;52947;50.842;6.084;2023-04-30T13:03:32;20.46;45.79
66144;SHT31;52947;50.842;6.084;2023-04-30T13:06:01;20.56;46.44
66144;SHT31;52947;50.842;6.084;2023-04-30T13:08:30;19.24;48.32
66144;SHT31;52947;50.842;6.084;2023-04-30T13:11:09;19.87;46.67
66144;SHT31;52947;50.842;6.084;2023-04-30T13:13:37;20.10;46.12
66144;SHT31;52947;50.842;6.084;2023-04-30T13:16:05;20.42;46.33
66144;SHT31;52947;50.842;6.084;2023-04-30T13:18:33;20.66;46.47
66144;SHT31;52947;50.842;6.084;2023-04-30T13:21:02;20.21;47.32
66144;SHT31;52947;50.842;6.084;2023-04-30T13:23:30;20.55;46.49
66144;SHT31;52947;50.842;6.084;2023-04-30T13:26:15;19.05;48.82
66144;SHT31;52947;50.842;6.084;2023-04-30T13:28:44;19.47;48.62
66144;SHT31;52947;50.842;6.084;2023-04-30T13:31:12;19.32;50.01
66144;SHT31;52947;50.842;6.084;2023-04-30T13:33:40;19.83;48.63
66144;SHT31;52947;50.842;6.084;2023-04-30T13:36:08;19.71;47.72
66144;SHT31;52947;50.842;6.084;2023-04-30T13:38:36;19.63;48.38
66144;SHT31;52947;50.842;6.084;2023-04-30T13:41:04;19.98;47.98
66144;SHT31;52947;50.842;6.084;2023-04-30T13:43:34;19.37;50.44
66144;SHT31;52947;50.842;6.084;2023-04-30T13:46:07;19.26;50.53
66144;SHT31;52947;50.842;6.084;2023-04-30T13:48:35;19.70;50.06
66144;SHT31;52947;50.842;6.084;2023-04-30T13:51:03;19.62;50.40
66144;SHT31;52947;50.842;6.084;2023-04-30T13:53:31;18.72;50.70
66144;SHT31;52947;50.842;6.084;2023-04-30T13:55:59;18.78;51.52
66144;SHT31;52947;50.842;6.084;2023-04-30T13:58:28;19.24;51.62
66144;SHT31;52947;50.842;6.084;2023-04-30T14:00:58;18.69;52.28
66144;SHT31;52947;50.842;6.084;2023-04-30T14:03:26;18.45;51.08
66144;SHT31;52947;50.842;6.084;2023-04-30T14:05:54;18.94;51.03
66144;SHT31;52947;50.842;6.084;2023-04-30T14:08:22;18.92;50.96
66144;SHT31;52947;50.842;6.084;2023-04-30T14:10:49;18.34;50.78
66144;SHT31;52947;50.842;6.084;2023-04-30T14:13:17;18.00;52.75
66144;SHT31;52947;50.842;6.084;2023-04-30T14:15:45;18.18;53.32
66144;SHT31;52947;50.842;6.084;2023-04-30T14:18:15;18.64;52.89
66144;SHT31;52947;50.842;6.084;2023-04-30T14:20:44;18.87;52.20
66144;SHT31;52947;50.842;6.084;2023-04-30T14:23:11;18.88;52.54
66144;SHT31;52947;50.842;6.084;2023-04-30T14:25:40;18.43;52.88
66144;SHT31;52947;50.842;6.084;2023-04-30T14:28:08;18.23;52.98
66144;SHT31;52947;50.842;6.084;2023-04-30T14:30:37;18.55;53.08
66144;SHT31;52947;50.842;6.084;2023-04-30T14:33:05;18.54;52.92
66144;SHT31;52947;50.842;6.084;2023-04-30T14:35:34;18.69;53.02
66144;SHT31;52947;50.842;6.084;2023-04-30T14:38:02;18.40;52.79
66144;SHT31;52947;50.842;6.084;2023-04-30T14:40:30;18.45;53.14
66144;SHT31;52947;50.842;6.084;2023-04-30T14:42:58;18.81;53.73
66144;SHT31;52947;50.842;6.084;2023-04-30T14:45:26;18.23;54.10
66144;SHT31;52947;50.842;6.084;2023-04-30T14:47:55;18.45;53.37
66144;SHT31;52947;50.842;6.084;2023-04-30T14:50:23;18.62;53.53
66144;SHT31;52947;50.842;6.084;2023-04-30T14:52:52;18.40;54.22
66144;SHT31;52947;50.842;6.084;2023-04-30T14:55:20;18.33;54.39
66144;SHT31;52947;50.842;6.084;2023-04-30T14:57:48;17.92;54.54
66144;SHT31;52947;50.842;6.084;2023-04-30T15:00:16;17.68;55.20
66144;SHT31;52947;50.842;6.084;2023-04-30T15:02:44;17.83;55.53
66144;SHT31;52947;50.842;6.084;2023-04-30T15:05:13;18.18;55.47
66144;SHT31;52947;50.842;6.084;2023-04-30T15:07:41;17.99;55.50
66144;SHT31;52947;50.842;6.084;2023-04-30T15:10:10;18.13;55.81
66144;SHT31;52947;50.842;6.084;2023-04-30T15:12:38;18.07;55.72
66144;SHT31;52947;50.842;6.084;2023-04-30T15:15:07;18.29;55.31
66144;SHT31;52947;50.842;6.084;2023-04-30T15:17:35;18.21;54.63
66144;SHT31;52947;50.842;6.084;2023-04-30T15:20:04;18.41;54.55
66144;SHT31;52947;50.842;6.084;2023-04-30T15:22:32;18.31;54.44
66144;SHT31;52947;50.842;6.084;2023-04-30T15:25:00;18.45;54.47
66144;SHT31;52947;50.842;6.084;2023-04-30T15:27:29;18.26;55.03
66144;SHT31;52947;50.842;6.084;2023-04-30T15:29:59;18.38;55.13
66144;SHT31;52947;50.842;6.084;2023-04-30T15:32:27;17.96;54.73
66144;SHT31;52947;50.842;6.084;2023-04-30T15:34:55;18.16;55.64
66144;SHT31;52947;50.842;6.084;2023-04-30T15:37:23;18.01;55.11
66144;SHT31;52947;50.842;6.084;2023-04-30T15:39:51;17.76;55.32
66144;SHT31;52947;50.842;6.084;2023-04-30T15:42:19;17.70;55.82
66144;SHT31;52947;50.842;6.084;2023-04-30T15:44:48;17.63;55.52
66144;SHT31;52947;50.842;6.084;2023-04-30T15:47:17;17.61;55.51
66144;SHT31;52947;50.842;6.084;2023-04-30T15:49:48;17.45;55.78